Time;durP1;ratioP1;P1;durP2;ratioP2;P2;SDS_P1;SDS_P2;PMS_P1;PMS_P2;Temp;Humidity;BMP_temperature;BMP_pressure;BME280_temperature;BME280_humidity;BME280_pressure;Samples;Min_cycle;Max_cycle;Signal;HPM_P1;HPM_P2
2021/09/09 00:02:05;;;;;;;19.10;17.10;;;;;;;16.34;73.91;101014.77;226789;1208;138991;-73
2021/09/09 00:07:07;;;;;;;19.20;17.40;;;;;;;16.31;73.67;101019.98;226841;1209;138871;-74
2021/09/09 00:12:08;;;;;;;19.40;17.50;;;;;;;16.25;73.61;101020.79;226889;1201;142097;-74
2021/09/09 00:17:10;;;;;;;20.00;16.80;;;;;;;16.20;73.66;101020.11;226843;1208;138614;-72
2021/09/09 00:22:12;;;;;;;20.30;18.20;;;;;;;16.16;73.55;101019.56;226827;1204;138875;-71
2021/09/09 00:27:13;;;;;;;18.20;16.30;;;;;;;16.14;73.47;101015.54;226868;1208;139428;-74
2021/09/09 00:32:15;;;;;;;18.60;16.10;;;;;;;16.12;73.13;101017.27;226856;1208;139048;-75
2021/09/09 00:37:17;;;;;;;17.40;15.70;;;;;;;16.15;72.75;101018.52;226999;1208;139180;-74
2021/09/09 00:42:18;;;;;;;17.10;15.50;;;;;;;16.13;72.61;101015.10;226835;1208;138687;-73
2021/09/09 00:47:20;;;;;;;16.20;14.60;;;;;;;16.07;72.55;101015.40;226859;1200;138733;-73
2021/09/09 00:52:22;;;;;;;17.80;15.90;;;;;;;16.02;72.97;101017.73;226767;1208;139043;-73
2021/09/09 00:57:24;;;;;;;18.00;16.10;;;;;;;15.92;73.37;101014.57;226831;1208;139849;-75
2021/09/09 01:02:25;;;;;;;17.20;15.20;;;;;;;15.90;73.32;101018.23;227057;1209;139288;-74
2021/09/09 01:07:27;;;;;;;17.90;16.10;;;;;;;15.88;73.24;101016.11;226857;1208;138539;-73
2021/09/09 01:12:29;;;;;;;16.50;14.80;;;;;;;15.87;73.01;101011.98;228366;1208;139081;-73
2021/09/09 01:17:31;;;;;;;16.60;14.90;;;;;;;15.86;72.79;101009.99;226919;1201;139094;-74
2021/09/09 01:22:32;;;;;;;17.80;15.90;;;;;;;15.78;73.20;101013.56;226844;1208;138982;-73
2021/09/09 01:27:34;;;;;;;15.90;14.30;;;;;;;15.77;72.97;101010.63;227210;1201;140107;-72
2021/09/09 01:32:36;;;;;;;16.80;15.10;;;;;;;15.79;72.58;101011.08;226866;1208;139332;-73
2021/09/09 01:37:37;;;;;;;16.80;15.00;;;;;;;15.77;72.72;101009.92;226817;1209;139058;-74
2021/09/09 01:42:39;;;;;;;16.50;14.80;;;;;;;15.71;72.97;101008.95;226756;1208;140009;-72
2021/09/09 01:47:41;;;;;;;15.60;14.20;;;;;;;15.64;73.13;101004.26;226806;1208;139647;-73
2021/09/09 01:52:43;;;;;;;18.50;15.80;;;;;;;15.58;73.67;101007.59;226800;1209;139126;-72
2021/09/09 01:57:46;;;;;;;16.20;14.60;;;;;;;15.48;73.96;101007.20;226778;1202;139666;-74
2021/09/09 02:02:47;;;;;;;16.40;15.00;;;;;;;15.44;74.18;101003.52;226912;1208;138952;-73
2021/09/09 02:07:49;;;;;;;17.00;15.20;;;;;;;15.44;74.08;101005.15;226843;1208;138793;-73
2021/09/09 02:12:51;;;;;;;16.70;14.70;;;;;;;15.41;74.06;101001.02;226789;1208;140207;-74
2021/09/09 02:17:52;;;;;;;17.00;15.30;;;;;;;15.33;74.36;101000.13;226846;1209;139074;-74
2021/09/09 02:22:54;;;;;;;19.50;16.00;;;;;;;15.27;74.69;100999.95;226784;1201;139691;-73
2021/09/09 02:27:56;;;;;;;17.40;15.60;;;;;;;15.14;75.30;100999.44;226836;1205;139595;-74
2021/09/09 02:32:58;;;;;;;17.10;15.50;;;;;;;15.12;75.65;100995.05;226788;1208;139319;-73
2021/09/09 02:37:59;;;;;;;18.30;16.40;;;;;;;15.16;75.47;100985.18;227075;1208;138566;-73
2021/09/09 02:43:01;;;;;;;16.80;15.20;;;;;;;15.15;75.53;100985.65;226990;1208;138954;-73
2021/09/09 02:48:03;;;;;;;18.40;16.70;;;;;;;15.15;75.52;100983.92;226977;1208;138509;-73
2021/09/09 02:53:05;;;;;;;18.80;16.80;;;;;;;15.00;75.98;100985.58;226934;1209;138742;-73
2021/09/09 02:58:07;;;;;;;18.20;16.30;;;;;;;14.95;76.32;100979.64;228077;1208;139627;-73
2021/09/09 03:03:08;;;;;;;18.40;16.60;;;;;;;14.94;76.32;100980.14;230657;1201;138316;-75
2021/09/09 03:08:10;;;;;;;19.70;17.60;;;;;;;14.97;76.15;100979.28;227362;1200;138872;-73
2021/09/09 03:13:11;;;;;;;19.70;17.70;;;;;;;14.90;76.45;100979.16;227297;1208;139161;-74
2021/09/09 03:18:13;;;;;;;20.60;18.50;;;;;;;14.79;76.65;100976.15;226906;1209;138566;-74
2021/09/09 03:23:15;;;;;;;21.10;18.60;;;;;;;14.70;77.18;100985.10;226936;1201;139480;-75
2021/09/09 03:28:16;;;;;;;20.00;18.00;;;;;;;14.67;77.25;100985.20;228295;1208;139847;-74
2021/09/09 03:33:18;;;;;;;20.50;18.50;;;;;;;14.64;77.24;100989.05;229301;1208;139097;-73
2021/09/09 03:38:20;;;;;;;19.60;17.70;;;;;;;14.58;77.49;100986.33;227308;1208;138522;-73
2021/09/09 03:43:22;;;;;;;20.20;18.10;;;;;;;14.44;77.93;100982.29;226947;1208;139491;-73
2021/09/09 03:48:23;;;;;;;20.70;18.70;;;;;;;14.33;78.35;100977.69;226854;1200;139268;-72
2021/09/09 03:53:25;;;;;;;20.40;18.30;;;;;;;14.38;78.38;100980.10;226893;1209;139279;-74
2021/09/09 03:58:26;;;;;;;22.10;19.70;;;;;;;14.50;77.87;100981.21;227158;1202;138841;-76
2021/09/09 04:03:28;;;;;;;20.60;18.60;;;;;;;14.38;78.19;100981.57;226982;1201;138494;-73
2021/09/09 04:08:29;;;;;;;21.90;19.70;;;;;;;14.34;78.43;100976.97;226967;1208;138446;-74
2021/09/09 04:13:31;;;;;;;21.70;19.40;;;;;;;14.25;78.62;100976.88;226777;1200;139947;-74
2021/09/09 04:18:33;;;;;;;19.90;18.00;;;;;;;14.23;78.81;100976.41;227082;1200;139639;-73
2021/09/09 04:23:34;;;;;;;20.60;18.50;;;;;;;14.32;78.32;100976.16;226883;1209;139610;-74
2021/09/09 04:28:36;;;;;;;21.10;18.90;;;;;;;14.28;78.43;100976.88;226955;1201;139353;-72
2021/09/09 04:33:38;;;;;;;21.00;18.90;;;;;;;14.24;78.60;100979.48;226936;1208;138991;-73
2021/09/09 04:38:39;;;;;;;20.80;18.80;;;;;;;14.22;78.81;100976.34;227008;1208;139361;-72
2021/09/09 04:43:41;;;;;;;21.10;18.90;;;;;;;14.25;78.63;100973.36;227599;1201;139097;-73
2021/09/09 04:48:43;;;;;;;20.10;18.10;;;;;;;14.33;78.32;100976.52;227061;1201;139003;-73
2021/09/09 04:53:44;;;;;;;21.50;19.30;;;;;;;14.29;78.54;100979.48;227009;1200;138917;-72
2021/09/09 04:58:46;;;;;;;21.40;19.20;;;;;;;14.37;78.12;100974.72;226953;1200;138842;-72
2021/09/09 05:03:48;;;;;;;20.70;18.20;;;;;;;14.33;78.15;100975.88;226888;1208;139595;-71
2021/09/09 05:08:50;;;;;;;20.70;18.70;;;;;;;14.39;78.14;100974.02;226865;1208;139435;-70
2021/09/09 05:13:51;;;;;;;21.30;19.20;;;;;;;14.47;78.10;100970.63;226855;1208;138775;-71
2021/09/09 05:18:53;;;;;;;19.70;17.50;;;;;;;14.49;77.89;100968.34;226852;1208;139534;-74
2021/09/09 05:23:55;;;;;;;19.60;17.60;;;;;;;14.50;78.16;100960.77;226971;1208;139127;-72
2021/09/09 05:28:56;;;;;;;19.50;17.60;;;;;;;14.55;78.21;100958.31;226842;1204;142146;-73
2021/09/09 05:33:58;;;;;;;18.60;16.80;;;;;;;14.64;78.11;100958.43;226899;1200;139037;-73
2021/09/09 05:38:59;;;;;;;19.50;17.50;;;;;;;14.72;77.94;100958.23;226884;1208;138654;-71
2021/09/09 05:44:01;;;;;;;19.50;17.50;;;;;;;14.76;77.95;100950.92;226913;1204;138917;-74
2021/09/09 05:49:03;;;;;;;19.50;17.50;;;;;;;14.78;77.91;100945.39;226797;1208;138634;-74
2021/09/09 05:54:04;;;;;;;19.80;17.20;;;;;;;14.81;78.00;100946.22;226810;1208;139475;-74
2021/09/09 05:59:06;;;;;;;18.70;16.60;;;;;;;14.92;77.77;100940.42;226813;1209;139233;-74
2021/09/09 06:04:11;;;;;;;17.90;16.00;;;;;;;15.06;77.23;100943.04;226991;1201;138984;-73
2021/09/09 06:09:14;;;;;;;;;;;;;;;15.11;77.12;100949.55;226923;1201;138900;-74
2021/09/09 06:14:16;;;;;;;16.80;14.80;;;;;;;15.20;76.22;100945.67;227206;1201;125700;-75
2021/09/09 06:19:17;;;;;;;17.10;14.60;;;;;;;15.23;76.11;100945.70;226859;1200;139397;-75
2021/09/09 06:24:19;;;;;;;16.50;13.60;;;;;;;15.34;75.72;100949.71;226855;1208;139896;-74
2021/09/09 06:29:21;;;;;;;18.40;14.00;;;;;;;15.50;74.99;100950.06;226876;1201;140059;-75
2021/09/09 06:34:22;;;;;;;13.80;12.40;;;;;;;15.61;74.22;100946.05;226947;1206;140355;-74
2021/09/09 06:39:24;;;;;;;14.10;12.50;;;;;;;15.73;74.11;100946.97;227016;1208;139231;-74
2021/09/09 06:44:26;;;;;;;13.10;11.90;;;;;;;15.84;73.57;100950.70;226892;1208;139004;-73
2021/09/09 06:49:28;;;;;;;15.90;13.30;;;;;;;15.93;73.46;100950.52;226824;1208;139194;-73
2021/09/09 06:54:29;;;;;;;16.00;12.20;;;;;;;16.04;73.32;100947.90;226878;1209;139283;-73
2021/09/09 06:59:31;;;;;;;13.20;11.80;;;;;;;16.15;73.55;100944.50;226874;1201;139293;-75
2021/09/09 07:04:32;;;;;;;13.60;12.20;;;;;;;16.28;73.20;100945.22;226922;1208;138467;-74
2021/09/09 07:09:34;;;;;;;14.30;11.80;;;;;;;16.42;73.03;100944.15;226964;1209;138896;-74
2021/09/09 07:14:36;;;;;;;13.60;12.00;;;;;;;16.55;72.45;100947.32;227006;1208;138850;-73
2021/09/09 07:19:37;;;;;;;12.80;11.30;;;;;;;16.67;72.52;100943.77;226897;1208;140239;-75
2021/09/09 07:24:39;;;;;;;16.00;11.10;;;;;;;16.82;73.05;100949.31;226979;1208;139045;-73
2021/09/09 07:29:41;;;;;;;12.70;11.40;;;;;;;16.98;72.48;100945.13;227673;1209;138437;-74
2021/09/09 07:34:42;;;;;;;13.30;10.70;;;;;;;17.13;72.06;100946.14;229110;1200;139272;-74
2021/09/09 07:39:44;;;;;;;14.00;11.40;;;;;;;17.22;71.86;100946.48;226789;1208;138802;-74
2021/09/09 07:44:46;;;;;;;15.60;11.60;;;;;;;17.37;71.18;100944.89;226902;1201;139307;-74
2021/09/09 07:49:48;;;;;;;11.80;10.60;;;;;;;17.60;69.80;100936.77;226901;1201;138871;-74
2021/09/09 07:54:49;;;;;;;11.20;9.80;;;;;;;17.71;69.16;100933.71;226893;1209;138628;-74
2021/09/09 07:59:52;;;;;;;11.20;10.10;;;;;;;17.80;68.53;100931.13;226909;1209;139519;-74
2021/09/09 08:04:53;;;;;;;11.10;10.00;;;;;;;17.91;68.20;100932.95;227119;1201;139287;-73
2021/09/09 08:09:55;;;;;;;14.00;11.30;;;;;;;17.99;68.05;100934.41;230330;1208;138552;-73
2021/09/09 08:14:56;;;;;;;15.30;13.70;;;;;;;18.15;67.75;100936.36;229899;1209;142442;-74
2021/09/09 08:19:59;;;;;;;13.90;12.40;;;;;;;18.33;68.15;100931.90;226965;1209;139057;-74
2021/09/09 08:25:01;;;;;;;14.40;12.60;;;;;;;18.43;68.39;100930.98;227073;1209;139384;-75
2021/09/09 08:30:04;;;;;;;12.90;11.60;;;;;;;18.50;67.59;100932.48;226998;1201;139081;-74
2021/09/09 08:35:06;;;;;;;14.00;11.60;;;;;;;18.57;67.34;100930.52;226970;1209;138900;-74
2021/09/09 08:40:09;;;;;;;14.10;12.00;;;;;;;18.70;65.47;100931.86;226948;1209;138738;-74
2021/09/09 08:45:13;;;;;;;12.30;10.20;;;;;;;18.79;65.38;100929.75;227034;1210;140029;-76
2021/09/09 08:50:16;;;;;;;10.30;9.30;;;;;;;18.93;65.31;100924.63;227143;1209;138857;-74
2021/09/09 08:55:19;;;;;;;15.60;13.10;;;;;;;19.05;64.13;100920.63;226926;1202;138526;-74
2021/09/09 09:00:21;;;;;;;10.50;9.40;;;;;;;19.18;63.67;100922.77;227044;1202;138792;-73
2021/09/09 09:05:23;;;;;;;11.20;8.80;;;;;;;19.32;62.30;100919.85;229103;1204;138315;-75
2021/09/09 09:10:26;;;;;;;17.40;14.60;;;;;;;19.43;62.00;100917.85;227795;1201;138884;-74
2021/09/09 09:15:32;;;;;;;11.60;9.90;;;;;;;19.41;62.92;100913.70;227107;1202;138809;-75
2021/09/09 09:20:40;;;;;;;11.10;9.50;;;;;;;19.55;62.82;100909.62;227234;1209;139610;-77
2021/09/09 09:25:48;;;;;;;9.30;8.50;;;;;;;19.86;61.13;100907.42;227268;1201;139395;-74
2021/09/09 09:31:10;;;;;;;10.10;9.00;;;;;;;20.20;59.30;100908.67;226861;1209;138637;-74
2021/09/09 09:36:13;;;;;;;9.00;8.00;;;;;;;20.31;58.41;100906.83;226969;1208;139263;-73
2021/09/09 09:41:18;;;;;;;8.20;7.40;;;;;;;20.45;57.85;100901.07;227143;1209;138323;-73
2021/09/09 09:46:25;;;;;;;7.90;7.10;;;;;;;20.63;56.23;100902.05;227152;1209;139207;-72
2021/09/09 09:51:41;;;;;;;8.00;6.60;;;;;;;20.79;55.02;100895.84;227187;1209;138626;-74
2021/09/09 09:56:46;;;;;;;8.00;7.20;;;;;;;20.85;55.13;100886.95;226993;1209;138762;-73
2021/09/09 10:01:48;;;;;;;8.10;7.40;;;;;;;21.04;53.87;100886.34;227157;1209;138803;-74
2021/09/09 10:06:51;;;;;;;8.30;7.50;;;;;;;21.14;54.11;100878.64;226985;1208;139343;-75
2021/09/09 10:11:53;;;;;;;8.30;7.50;;;;;;;21.22;53.91;100873.56;226907;1210;138937;-73
2021/09/09 10:16:58;;;;;;;7.90;7.00;;;;;;;21.36;53.32;100871.73;226823;1209;138841;-74
2021/09/09 10:22:25;;;;;;;7.30;6.60;;;;;;;21.52;51.48;100870.21;227073;1209;138227;-73
2021/09/09 10:27:34;;;;;;;9.00;8.00;;;;;;;21.54;52.72;100860.98;226870;1208;138373;-73
2021/09/09 10:32:36;;;;;;;8.40;6.90;;;;;;;21.72;51.87;100865.98;226766;1202;138432;-74
2021/09/09 10:37:39;;;;;;;7.80;7.10;;;;;;;21.90;50.31;100864.36;227014;1210;138090;-74
2021/09/09 10:42:41;;;;;;;9.00;8.00;;;;;;;21.99;51.30;100854.74;227127;1202;138325;-74
2021/09/09 10:47:50;;;;;;;8.70;7.80;;;;;;;22.09;52.99;100851.20;226955;1210;138193;-70
2021/09/09 10:52:58;;;;;;;11.40;10.30;;;;;;;22.25;51.88;100845.92;227117;1209;141159;-73
2021/09/09 10:58:12;;;;;;;9.20;8.20;;;;;;;22.37;51.65;100847.23;226882;1209;139099;-73
2021/09/09 11:03:33;;;;;;;9.50;8.30;;;;;;;22.60;50.65;100834.08;226843;1209;139066;-73
2021/09/09 11:08:35;;;;;;;11.20;10.10;;;;;;;22.91;51.54;100830.93;226827;1209;138582;-74
2021/09/09 11:13:38;;;;;;;8.30;7.50;;;;;;;23.25;50.38;100826.77;227131;1208;139254;-74
2021/09/09 11:18:43;;;;;;;8.70;7.90;;;;;;;23.42;49.54;100827.90;227022;1209;139274;-73
2021/09/09 11:23:46;;;;;;;8.40;7.30;;;;;;;23.61;47.81;100826.52;226837;1208;138660;-74
2021/09/09 11:28:50;;;;;;;8.60;6.80;;;;;;;23.71;46.53;100822.77;227357;1209;139385;-73
2021/09/09 11:33:54;;;;;;;8.30;6.40;;;;;;;23.71;44.87;100824.41;229069;1201;138135;-73
2021/09/09 11:38:59;;;;;;;7.20;6.70;;;;;;;23.41;44.72;100815.20;226974;1208;138624;-74
2021/09/09 11:44:06;;;;;;;6.70;6.10;;;;;;;23.30;45.64;100804.35;226984;1209;138140;-73
2021/09/09 11:49:10;;;;;;;7.80;6.20;;;;;;;23.07;44.53;100799.20;227034;1208;138770;-73
2021/09/09 11:54:19;;;;;;;6.70;6.20;;;;;;;23.06;45.08;100792.30;228740;1201;138147;-73
2021/09/09 11:59:20;;;;;;;8.20;6.00;;;;;;;23.28;44.93;100788.56;229423;1201;138295;-73
2021/09/09 12:04:23;;;;;;;7.70;6.30;;;;;;;24.88;42.75;100786.18;226885;1209;138176;-73
2021/09/09 12:09:26;;;;;;;7.80;7.10;;;;;;;25.25;41.54;100775.85;226959;1211;138656;-73
2021/09/09 12:14:28;;;;;;;7.80;6.10;;;;;;;23.92;44.52;100777.23;226896;1210;138371;-74
2021/09/09 12:19:30;;;;;;;7.00;6.20;;;;;;;23.66;46.55;100766.40;226920;1202;139066;-73
2021/09/09 12:24:32;;;;;;;7.20;6.50;;;;;;;23.87;45.23;100767.38;227007;1209;138200;-74
2021/09/09 12:29:39;;;;;;;7.60;6.80;;;;;;;23.87;44.30;100764.63;227155;1208;137989;-73
2021/09/09 12:34:40;;;;;;;8.00;7.20;;;;;;;23.83;45.26;100766.73;227187;1201;138498;-74
2021/09/09 12:39:47;;;;;;;7.40;6.60;;;;;;;23.72;44.92;100767.39;227068;1209;138666;-75
2021/09/09 12:44:48;;;;;;;6.50;5.90;;;;;;;23.87;43.47;100766.30;227020;1202;139183;-73
2021/09/09 12:49:50;;;;;;;6.10;5.50;;;;;;;23.81;41.96;100761.02;226958;1208;139591;-74
2021/09/09 12:54:52;;;;;;;7.30;6.30;;;;;;;23.74;42.40;100759.23;226848;1205;141492;-72
2021/09/09 12:59:53;;;;;;;6.60;6.00;;;;;;;23.71;43.21;100748.77;227289;1209;140724;-73
2021/09/09 13:04:55;;;;;;;6.30;5.70;;;;;;;23.87;42.22;100744.61;226779;1208;138668;-75
2021/09/09 13:09:56;;;;;;;7.20;6.60;;;;;;;23.94;41.85;100732.83;226908;1201;138378;-73
2021/09/09 13:14:58;;;;;;;8.10;6.50;;;;;;;24.47;41.80;100730.98;226892;1202;138580;-73
2021/09/09 13:19:59;;;;;;;6.90;6.10;;;;;;;25.48;39.48;100722.29;227217;1202;138415;-72
2021/09/09 13:25:01;;;;;;;7.40;6.80;;;;;;;24.82;40.71;100727.23;226883;1208;138639;-72
2021/09/09 13:30:04;;;;;;;7.60;6.90;;;;;;;24.34;42.27;100717.23;226956;1209;138124;-73
2021/09/09 13:35:06;;;;;;;7.10;6.40;;;;;;;24.13;43.26;100719.21;227232;1201;138824;-74
2021/09/09 13:40:09;;;;;;;6.70;6.10;;;;;;;24.00;42.58;100711.42;226854;1209;138739;-75
2021/09/09 13:45:11;;;;;;;7.10;6.50;;;;;;;24.12;42.64;100714.04;226855;1208;138568;-74
2021/09/09 13:50:13;;;;;;;7.80;6.20;;;;;;;23.90;43.22;100714.27;227062;1208;138222;-73
2021/09/09 13:55:15;;;;;;;6.40;5.90;;;;;;;23.80;43.43;100708.23;227065;1206;138792;-74
2021/09/09 14:00:17;;;;;;;6.60;6.00;;;;;;;23.81;43.57;100702.57;227135;1201;138577;-74
2021/09/09 14:05:19;;;;;;;7.20;6.50;;;;;;;23.77;43.70;100702.35;227250;1208;138195;-75
2021/09/09 14:10:20;;;;;;;6.50;6.00;;;;;;;23.75;42.85;100697.02;227202;1208;139207;-74
2021/09/09 14:15:22;;;;;;;7.00;6.30;;;;;;;23.97;42.92;100693.53;226804;1206;139038;-72
2021/09/09 14:20:24;;;;;;;8.70;7.80;;;;;;;23.96;42.66;100690.94;226833;1208;139429;-73
2021/09/09 14:25:26;;;;;;;6.90;6.20;;;;;;;23.79;43.95;100689.23;226817;1208;139276;-76
2021/09/09 14:30:27;;;;;;;6.70;5.20;;;;;;;23.71;44.61;100685.30;227447;1208;138947;-73
2021/09/09 14:35:29;;;;;;;7.00;6.30;;;;;;;23.64;45.14;100676.31;226896;1206;138211;-75
2021/09/09 14:40:31;;;;;;;8.80;7.90;;;;;;;23.55;46.14;100671.02;227129;1201;138522;-74
2021/09/09 14:45:33;;;;;;;6.90;6.30;;;;;;;23.43;46.41;100670.17;226826;1208;139253;-74
2021/09/09 14:50:34;;;;;;;6.40;5.80;;;;;;;23.33;45.57;100668.57;227178;1208;138121;-72
2021/09/09 14:55:36;;;;;;;8.10;6.60;;;;;;;23.30;46.18;100665.09;226903;1208;138166;-74
2021/09/09 15:00:38;;;;;;;9.30;7.30;;;;;;;23.28;45.81;100657.96;226871;1208;138212;-74
2021/09/09 15:05:40;;;;;;;7.50;6.80;;;;;;;23.23;46.02;100652.20;226946;1206;138512;-77
2021/09/09 15:10:42;;;;;;;7.10;6.50;;;;;;;23.22;45.91;100646.38;227395;1208;139152;-75
2021/09/09 15:15:44;;;;;;;7.80;6.80;;;;;;;23.20;46.53;100648.56;226870;1208;139206;-71
2021/09/09 15:20:45;;;;;;;6.50;5.90;;;;;;;23.18;46.10;100643.86;226889;1208;139267;-73
2021/09/09 15:25:49;;;;;;;6.50;5.90;;;;;;;23.12;46.69;100644.04;227169;1202;139327;-75
2021/09/09 15:30:50;;;;;;;6.70;6.10;;;;;;;23.09;46.62;100637.70;227540;1208;138685;-72
2021/09/09 15:35:52;;;;;;;5.60;5.10;;;;;;;23.05;46.55;100630.25;229261;1208;138282;-73
2021/09/09 15:40:54;;;;;;;6.20;5.60;;;;;;;22.98;46.23;100629.89;226842;1208;139057;-75
2021/09/09 15:45:55;;;;;;;6.40;5.70;;;;;;;22.96;46.55;100621.92;226914;1203;138572;-73
2021/09/09 15:50:57;;;;;;;6.30;5.80;;;;;;;22.92;46.97;100615.16;228620;1208;138040;-73
2021/09/09 15:55:58;;;;;;;6.10;5.20;;;;;;;22.85;47.32;100610.75;229253;1206;138182;-73
2021/09/09 16:01:01;;;;;;;6.10;5.20;;;;;;;22.80;48.37;100607.13;226903;1208;139716;-73
2021/09/09 16:06:02;;;;;;;6.10;5.60;;;;;;;22.74;48.48;100599.75;226908;1208;139194;-74
2021/09/09 16:11:04;;;;;;;7.60;7.00;;;;;;;22.70;49.02;100594.95;226893;1205;138548;-73
2021/09/09 16:16:06;;;;;;;7.20;6.50;;;;;;;22.59;49.96;100598.83;226938;1208;138273;-75
2021/09/09 16:21:07;;;;;;;9.10;8.30;;;;;;;22.53;50.13;100590.98;226934;1208;139150;-76
2021/09/09 16:26:10;;;;;;;6.90;6.20;;;;;;;22.46;50.91;100585.41;227135;1208;138339;-73
2021/09/09 16:31:15;;;;;;;7.30;6.00;;;;;;;22.36;50.62;100584.41;226824;1209;138417;-74
2021/09/09 16:36:17;;;;;;;7.10;6.40;;;;;;;22.25;50.27;100584.59;227475;1206;138360;-74
2021/09/09 16:41:19;;;;;;;7.10;6.40;;;;;;;22.14;50.91;100580.76;227436;1208;138457;-75
2021/09/09 16:46:20;;;;;;;7.20;6.30;;;;;;;22.06;51.35;100583.60;227468;1208;138711;-74
2021/09/09 16:51:22;;;;;;;8.90;7.50;;;;;;;21.96;51.82;100581.39;226926;1208;138598;-74
2021/09/09 16:56:27;;;;;;;8.40;7.20;;;;;;;21.90;51.98;100579.23;227012;1208;138756;-74
2021/09/09 17:01:29;;;;;;;9.40;6.90;;;;;;;21.71;52.47;100581.23;226832;1207;138705;-74
2021/09/09 17:06:30;;;;;;;7.60;6.80;;;;;;;21.63;53.05;100582.35;226975;1208;138787;-72
2021/09/09 17:11:33;;;;;;;9.30;6.80;;;;;;;21.46;53.82;100585.38;226897;1208;138623;-73
2021/09/09 17:16:35;;;;;;;8.70;7.80;;;;;;;21.33;54.99;100588.00;226929;1208;138621;-75
2021/09/09 17:21:37;;;;;;;7.30;6.60;;;;;;;21.15;55.19;100594.00;227231;1203;138890;-75
2021/09/09 17:26:39;;;;;;;8.30;7.10;;;;;;;21.12;55.12;100590.46;227346;1209;138747;-74
2021/09/09 17:31:41;;;;;;;8.50;7.30;;;;;;;21.04;55.35;100595.02;227239;1202;138547;-73
2021/09/09 17:36:43;;;;;;;9.80;7.90;;;;;;;20.93;55.61;100594.88;226917;1208;138088;-73
2021/09/09 17:41:44;;;;;;;9.20;8.20;;;;;;;20.86;55.69;100597.36;226949;1208;138293;-74
2021/09/09 17:46:46;;;;;;;8.50;7.60;;;;;;;20.73;56.07;100599.45;226962;1208;138374;-75
2021/09/09 17:51:49;;;;;;;8.40;7.50;;;;;;;20.66;56.35;100602.14;226899;1208;138553;-75
2021/09/09 17:56:51;;;;;;;8.80;7.50;;;;;;;20.61;56.65;100605.89;227768;1202;139398;-74
2021/09/09 18:01:53;;;;;;;8.60;7.70;;;;;;;20.49;57.12;100601.61;227079;1201;141592;-75
2021/09/09 18:06:55;;;;;;;9.90;7.90;;;;;;;20.35;57.59;100602.44;226957;1202;138780;-76
2021/09/09 18:11:57;;;;;;;10.40;9.20;;;;;;;20.29;58.14;100598.29;227367;1201;139226;-74
2021/09/09 18:16:58;;;;;;;9.70;8.60;;;;;;;20.24;58.49;100606.23;227571;1201;138800;-75
2021/09/09 18:22:00;;;;;;;10.60;9.50;;;;;;;20.15;58.84;100605.15;226923;1208;138389;-74
2021/09/09 18:27:01;;;;;;;9.20;8.30;;;;;;;20.02;59.36;100607.65;226931;1208;138488;-74
2021/09/09 18:32:04;;;;;;;9.50;8.40;;;;;;;19.77;59.94;100609.67;227479;1202;138697;-75
2021/09/09 18:37:06;;;;;;;9.30;8.20;;;;;;;19.74;59.86;100617.23;226932;1208;138473;-74
2021/09/09 18:42:07;;;;;;;9.70;8.70;;;;;;;19.70;59.78;100616.29;226986;1208;138369;-73
2021/09/09 18:47:10;;;;;;;11.90;9.50;;;;;;;19.65;59.94;100619.30;226904;1208;138402;-74
2021/09/09 18:52:12;;;;;;;9.90;8.90;;;;;;;19.51;60.64;100623.89;227306;1200;138572;-74
2021/09/09 18:57:14;;;;;;;10.60;9.60;;;;;;;19.36;61.05;100626.40;226992;1204;138772;-74
2021/09/09 19:02:15;;;;;;;10.20;8.90;;;;;;;19.24;61.45;100627.45;226866;1208;139480;-75
2021/09/09 19:07:17;;;;;;;11.30;10.00;;;;;;;19.18;61.61;100632.42;226971;1208;139358;-76
2021/09/09 19:12:19;;;;;;;14.00;10.20;;;;;;;19.09;61.80;100636.49;226319;1205;310076;-74
2021/09/09 19:17:20;;;;;;;12.00;10.30;;;;;;;19.01;62.16;100635.95;226958;1208;138563;-74
2021/09/09 19:22:22;;;;;;;10.90;9.70;;;;;;;18.86;62.42;100640.67;226912;1200;139929;-74
2021/09/09 19:27:24;;;;;;;12.20;9.70;;;;;;;18.68;62.96;100640.42;227170;1209;138325;-74
2021/09/09 19:32:27;;;;;;;10.10;9.10;;;;;;;18.58;63.17;100641.45;227175;1208;138451;-78
2021/09/09 19:37:29;;;;;;;11.10;9.80;;;;;;;18.46;63.67;100639.17;226873;1206;493622;-79
2021/09/09 19:42:31;;;;;;;13.10;10.90;;;;;;;18.33;64.04;100643.71;229377;1202;138562;-75
2021/09/09 19:47:32;;;;;;;12.70;11.40;;;;;;;18.23;64.40;100647.61;228243;1202;138630;-75
2021/09/09 19:52:34;;;;;;;12.40;11.10;;;;;;;18.12;64.84;100648.36;227462;1209;139040;-73
2021/09/09 19:57:36;;;;;;;13.60;12.30;;;;;;;18.01;65.40;100646.23;227639;1202;139054;-74
2021/09/09 20:02:37;;;;;;;14.50;11.70;;;;;;;17.94;65.60;100647.16;227400;1206;139911;-74
2021/09/09 20:07:39;;;;;;;13.00;11.40;;;;;;;17.89;65.66;100648.98;227492;1209;138963;-75
2021/09/09 20:12:41;;;;;;;12.50;11.30;;;;;;;17.92;65.54;100648.97;227611;1202;138618;-77
2021/09/09 20:17:43;;;;;;;12.40;11.20;;;;;;;17.85;65.63;100650.52;228119;1201;139458;-74
2021/09/09 20:22:45;;;;;;;16.50;12.20;;;;;;;17.74;66.06;100653.10;227000;1209;139282;-75
2021/09/09 20:27:48;;;;;;;13.50;12.10;;;;;;;17.66;66.27;100653.80;227224;1210;138614;-73
2021/09/09 20:32:50;;;;;;;15.10;11.50;;;;;;;17.56;66.65;100654.70;227251;1208;138549;-75
2021/09/09 20:37:51;;;;;;;13.50;12.10;;;;;;;17.56;66.52;100651.62;227491;1200;138535;-76
2021/09/09 20:42:53;;;;;;;13.70;11.30;;;;;;;17.49;66.71;100655.08;227364;1201;138874;-75
2021/09/09 20:47:55;;;;;;;14.50;11.50;;;;;;;17.40;66.84;100660.77;226999;1200;138566;-74
2021/09/09 20:52:56;;;;;;;11.30;10.20;;;;;;;17.37;66.69;100666.11;227250;1208;140636;-75
2021/09/09 20:57:58;;;;;;;13.30;11.40;;;;;;;17.34;66.60;100664.52;227252;1201;138516;-75
2021/09/09 21:03:00;;;;;;;13.50;12.10;;;;;;;17.33;66.39;100663.36;227009;1205;139396;-77
2021/09/09 21:08:02;;;;;;;11.90;10.70;;;;;;;17.33;66.28;100665.04;226926;1201;139259;-73
2021/09/09 21:13:07;;;;;;;12.20;11.00;;;;;;;17.38;65.86;100663.29;227098;1208;138978;-75
2021/09/09 21:18:08;;;;;;;;;;;;;;;17.35;65.75;100660.13;227185;1208;138827;-76
2021/09/09 21:23:11;;;;;;;13.10;10.00;;;;;;;17.23;66.15;100662.76;227153;1208;124919;-74
2021/09/09 21:28:12;;;;;;;12.70;11.40;;;;;;;17.14;66.13;100664.73;227283;1201;139057;-73
2021/09/09 21:33:14;;;;;;;10.70;9.60;;;;;;;17.11;66.21;100663.00;227903;1207;139089;-73
2021/09/09 21:38:15;;;;;;;11.30;10.10;;;;;;;17.05;66.24;100664.14;226990;1208;138953;-74
2021/09/09 21:43:17;;;;;;;11.20;10.10;;;;;;;16.98;66.24;100658.67;227035;1209;139244;-75
2021/09/09 21:48:19;;;;;;;10.50;9.40;;;;;;;16.93;66.04;100660.96;226950;1208;139441;-75
2021/09/09 21:53:21;;;;;;;10.80;9.70;;;;;;;16.88;66.04;100658.11;226926;1208;138334;-73
2021/09/09 21:58:22;;;;;;;14.10;11.00;;;;;;;16.84;66.07;100656.33;226897;1205;139165;-74
2021/09/09 22:03:24;;;;;;;12.30;11.00;;;;;;;16.83;65.89;100659.65;226962;1208;138961;-73
2021/09/09 22:08:26;;;;;;;11.80;10.60;;;;;;;16.86;65.33;100658.33;226991;1208;138839;-74
2021/09/09 22:13:27;;;;;;;12.30;10.80;;;;;;;16.87;65.13;100661.80;226936;1201;139003;-73
2021/09/09 22:18:29;;;;;;;12.40;10.10;;;;;;;16.78;65.37;100659.39;227126;1200;138875;-73
2021/09/09 22:23:32;;;;;;;13.00;9.90;;;;;;;16.71;65.67;100660.05;226909;1208;138512;-73
2021/09/09 22:28:34;;;;;;;10.50;9.50;;;;;;;16.58;65.95;100658.00;226940;1208;138762;-72
2021/09/09 22:33:35;;;;;;;11.10;10.00;;;;;;;16.52;66.01;100651.27;226995;1200;139194;-74
2021/09/09 22:38:39;;;;;;;10.30;9.30;;;;;;;16.47;66.03;100647.06;226929;1208;139193;-73